Time;durP1;ratioP1;P1;durP2;ratioP2;P2;SDS_P1;SDS_P2;PMS_P1;PMS_P2;Temp;Humidity;BMP_temperature;BMP_pressure;BME280_temperature;BME280_humidity;BME280_pressure;Samples;Min_cycle;Max_cycle;Signal;HPM_P1;HPM_P2
2022/06/15 00:01:35;;;;;;;7.97;5.60;;;;;;;;;;5307124;27;20043;-82
2022/06/15 00:04:06;;;;;;;8.27;5.47;;;;;;;;;;5313594;27;20645;-81
2022/06/15 00:06:39;;;;;;;12.27;6.17;;;;;;;;;;5310548;27;20275;-81
2022/06/15 00:09:10;;;;;;;10.63;5.50;;;;;;;;;;5328255;27;20287;-82
2022/06/15 00:11:43;;;;;;;12.00;7.13;;;;;;;;;;5308668;27;20516;-81
2022/06/15 00:14:16;;;;;;;7.20;4.57;;;;;;;;;;5313739;27;20689;-81
2022/06/15 00:16:47;;;;;;;8.82;4.45;;;;;;;;;;5307127;27;20439;-81
2022/06/15 00:19:19;;;;;;;12.98;5.63;;;;;;;;;;5309387;27;20028;-82
2022/06/15 00:21:50;;;;;;;12.38;7.38;;;;;;;;;;5324804;27;20043;-82
2022/06/15 00:24:22;;;;;;;10.70;7.50;;;;;;;;;;5291151;27;20024;-82
2022/06/15 00:26:53;;;;;;;14.23;5.05;;;;;;;;;;5309045;27;20028;-82
2022/06/15 00:29:24;;;;;;;12.40;7.67;;;;;;;;;;5314174;27;20077;-82
2022/06/15 00:31:55;;;;;;;15.60;7.73;;;;;;;;;;5308590;27;20274;-82
2022/06/15 00:34:26;;;;;;;9.73;5.18;;;;;;;;;;5313981;27;20373;-82
2022/06/15 00:36:58;;;;;;;10.73;5.27;;;;;;;;;;5309558;27;20196;-82
2022/06/15 00:39:29;;;;;;;8.38;5.72;;;;;;;;;;5308378;27;20275;-82
2022/06/15 00:42:01;;;;;;;12.88;8.07;;;;;;;;;;5307860;27;20055;-82
2022/06/15 00:44:34;;;;;;;9.20;5.80;;;;;;;;;;5312913;27;20127;-82
2022/06/15 00:47:14;;;;;;;11.45;6.57;;;;;;;;;;5307771;27;20827;-82
2022/06/15 00:49:47;;;;;;;10.48;7.50;;;;;;;;;;5312583;27;20032;-82
2022/06/15 00:52:24;;;;;;;9.23;7.00;;;;;;;;;;5310089;27;20393;-82
2022/06/15 00:54:56;;;;;;;11.18;7.20;;;;;;;;;;5314161;27;20444;-82
2022/06/15 00:57:28;;;;;;;10.25;7.57;;;;;;;;;;5307178;27;20056;-82
2022/06/15 01:00:00;;;;;;;10.32;6.85;;;;;;;;;;5316805;27;20208;-82
2022/06/15 01:02:36;;;;;;;8.32;6.97;;;;;;;;;;5312343;27;20040;-82
2022/06/15 01:05:17;;;;;;;11.90;8.38;;;;;;;;;;5306911;27;20030;-82
2022/06/15 01:08:07;;;;;;;14.82;7.63;;;;;;;;;;5312089;27;20032;-82
2022/06/15 01:10:50;;;;;;;12.35;7.85;;;;;;;;;;5310311;27;20051;-82
2022/06/15 01:13:29;;;;;;;9.80;6.20;;;;;;;;;;5312571;27;21272;-82
2022/06/15 01:16:21;;;;;;;13.50;6.88;;;;;;;;;;5321291;27;20455;-82
2022/06/15 01:18:52;;;;;;;10.75;7.32;;;;;;;;;;5298696;27;20067;-82
2022/06/15 01:21:32;;;;;;;13.00;7.07;;;;;;;;;;5308983;27;20111;-82
2022/06/15 01:24:14;;;;;;;10.88;6.53;;;;;;;;;;5313296;27;20372;-82
2022/06/15 01:26:45;;;;;;;8.80;6.50;;;;;;;;;;5310297;27;20454;-82
2022/06/15 01:29:20;;;;;;;10.60;6.50;;;;;;;;;;5318994;27;20024;-82
2022/06/15 01:32:11;;;;;;;10.27;6.47;;;;;;;;;;5292487;27;20173;-82
2022/06/15 01:34:45;;;;;;;10.60;7.07;;;;;;;;;;5288360;27;20101;-82
2022/06/15 01:37:25;;;;;;;9.98;6.13;;;;;;;;;;5297466;27;20097;-82
2022/06/15 01:40:07;;;;;;;8.82;7.30;;;;;;;;;;5302558;27;20024;-82
2022/06/15 01:42:41;;;;;;;10.90;6.50;;;;;;;;;;5309984;27;20067;-82
2022/06/15 01:45:15;;;;;;;8.80;6.20;;;;;;;;;;5295623;27;20039;-82
2022/06/15 01:47:48;;;;;;;11.07;6.43;;;;;;;;;;5315650;27;20040;-82
2022/06/15 01:50:21;;;;;;;11.38;5.80;;;;;;;;;;5314073;27;20028;-82
2022/06/15 01:52:59;;;;;;;12.23;6.53;;;;;;;;;;5312216;27;20071;-82
2022/06/15 01:55:33;;;;;;;10.57;6.40;;;;;;;;;;5309400;27;20032;-82
2022/06/15 01:58:06;;;;;;;12.55;6.53;;;;;;;;;;5310979;27;20147;-82
2022/06/15 02:00:37;;;;;;;9.35;6.25;;;;;;;;;;5310042;27;20110;-82
2022/06/15 02:03:11;;;;;;;11.15;6.82;;;;;;;;;;5307684;27;20043;-82
2022/06/15 02:05:46;;;;;;;11.57;6.50;;;;;;;;;;5289620;27;20032;-81
2022/06/15 02:08:35;;;;;;;10.57;6.47;;;;;;;;;;5310577;27;20396;-82
2022/06/15 02:11:23;;;;;;;10.68;6.65;;;;;;;;;;5324187;27;20123;-82
2022/06/15 02:14:01;;;;;;;11.45;6.72;;;;;;;;;;5289167;27;20462;-82
2022/06/15 02:16:37;;;;;;;10.10;6.60;;;;;;;;;;5307095;27;20115;-82
2022/06/15 02:19:10;;;;;;;11.25;6.68;;;;;;;;;;5306440;27;20032;-82
2022/06/15 02:21:43;;;;;;;9.45;6.20;;;;;;;;;;5309676;27;20028;-82
2022/06/15 02:24:15;;;;;;;11.35;6.25;;;;;;;;;;5297052;27;20420;-82
2022/06/15 02:26:46;;;;;;;11.85;6.93;;;;;;;;;;5310873;27;20487;-82
2022/06/15 02:29:20;;;;;;;8.38;6.32;;;;;;;;;;5320001;27;20078;-82
2022/06/15 02:31:56;;;;;;;7.65;5.65;;;;;;;;;;5297571;27;20028;-82
2022/06/15 02:34:27;;;;;;;9.48;6.85;;;;;;;;;;5309696;27;20080;-82
2022/06/15 02:36:58;;;;;;;9.77;5.88;;;;;;;;;;5307473;27;20081;-81
2022/06/15 02:39:29;;;;;;;9.83;6.33;;;;;;;;;;5313408;27;20033;-82
2022/06/15 02:42:02;;;;;;;10.13;6.57;;;;;;;;;;5313541;27;20271;-82
2022/06/15 02:44:35;;;;;;;12.82;6.25;;;;;;;;;;5298768;27;20024;-82
2022/06/15 02:47:06;;;;;;;10.60;6.25;;;;;;;;;;5294047;27;20029;-81
2022/06/15 02:49:37;;;;;;;10.55;6.40;;;;;;;;;;5293895;27;20059;-82
2022/06/15 02:52:10;;;;;;;11.15;6.68;;;;;;;;;;5286367;27;20036;-82
2022/06/15 02:54:43;;;;;;;15.75;7.35;;;;;;;;;;5307375;27;20313;-82
2022/06/15 02:57:15;;;;;;;11.85;7.35;;;;;;;;;;5291318;27;20049;-81
2022/06/15 02:59:47;;;;;;;9.50;6.38;;;;;;;;;;5322307;27;20021;-81
2022/06/15 03:02:19;;;;;;;10.63;6.60;;;;;;;;;;5308362;27;20512;-81
2022/06/15 03:04:51;;;;;;;9.70;6.20;;;;;;;;;;5312366;27;20031;-81
2022/06/15 03:07:23;;;;;;;12.13;6.97;;;;;;;;;;5294505;27;20024;-81
2022/06/15 03:09:54;;;;;;;11.32;7.32;;;;;;;;;;5306185;27;20320;-81
2022/06/15 03:12:25;;;;;;;10.70;7.00;;;;;;;;;;5293065;27;20036;-81
2022/06/15 03:14:56;;;;;;;13.15;7.45;;;;;;;;;;5312703;27;20032;-81
2022/06/15 03:17:28;;;;;;;9.38;6.97;;;;;;;;;;5322825;27;20608;-81
2022/06/15 03:19:59;;;;;;;13.30;7.50;;;;;;;;;;5310063;27;20377;-81
2022/06/15 03:22:32;;;;;;;8.17;6.63;;;;;;;;;;5294838;27;20056;-81
2022/06/15 03:25:03;;;;;;;12.32;7.90;;;;;;;;;;5325273;27;20374;-81
2022/06/15 03:27:35;;;;;;;12.80;7.93;;;;;;;;;;5313520;27;20677;-81
2022/06/15 03:30:07;;;;;;;16.00;7.65;;;;;;;;;;5309457;27;20016;-81
2022/06/15 03:32:38;;;;;;;11.02;7.63;;;;;;;;;;5315493;27;20090;-81
2022/06/15 03:35:10;;;;;;;10.30;7.07;;;;;;;;;;5314381;27;20145;-81
2022/06/15 03:37:41;;;;;;;15.23;7.90;;;;;;;;;;5313998;27;20506;-81
2022/06/15 03:40:13;;;;;;;9.00;7.15;;;;;;;;;;5330375;27;20051;-81
2022/06/15 03:42:44;;;;;;;9.32;6.63;;;;;;;;;;5311000;27;20094;-81
2022/06/15 03:45:15;;;;;;;11.35;7.22;;;;;;;;;;5340326;27;20028;-81
2022/06/15 03:47:46;;;;;;;14.32;7.50;;;;;;;;;;5350197;27;20040;-81
2022/06/15 03:50:18;;;;;;;11.73;7.53;;;;;;;;;;5339646;27;20039;-81
2022/06/15 03:52:50;;;;;;;11.83;6.93;;;;;;;;;;5322360;27;20037;-81
2022/06/15 03:55:21;;;;;;;12.90;7.65;;;;;;;;;;5320783;27;20036;-81
2022/06/15 03:57:52;;;;;;;10.57;7.63;;;;;;;;;;5315198;27;20082;-82
2022/06/15 04:00:24;;;;;;;11.65;7.63;;;;;;;;;;5316497;27;20485;-82
2022/06/15 04:02:55;;;;;;;9.02;8.02;;;;;;;;;;5299123;27;20059;-82
2022/06/15 04:05:35;;;;;;;10.27;7.45;;;;;;;;;;5299076;27;20922;-82
2022/06/15 04:11:03;;;;;;;7.75;6.93;;;;;;;;;;5310908;27;20040;-81
2022/06/15 04:13:34;;;;;;;9.05;6.82;;;;;;;;;;5295840;28;20028;-81
2022/06/15 04:16:07;;;;;;;12.27;6.88;;;;;;;;;;5313347;27;20059;-81
2022/06/15 04:18:38;;;;;;;11.98;6.75;;;;;;;;;;5316493;27;20024;-81
2022/06/15 04:21:09;;;;;;;9.57;7.05;;;;;;;;;;5315419;27;20708;-82
2022/06/15 04:23:40;;;;;;;9.60;7.20;;;;;;;;;;5318062;27;20025;-80
2022/06/15 04:26:12;;;;;;;10.18;6.57;;;;;;;;;;5319259;27;20278;-81
2022/06/15 04:28:44;;;;;;;7.75;6.63;;;;;;;;;;5313582;27;20028;-81
2022/06/15 04:31:15;;;;;;;12.00;6.95;;;;;;;;;;5314840;27;20027;-81
2022/06/15 04:33:46;;;;;;;12.60;6.88;;;;;;;;;;5308361;27;20041;-80
2022/06/15 04:36:18;;;;;;;10.90;6.57;;;;;;;;;;5311549;27;20459;-81
2022/06/15 04:38:50;;;;;;;11.60;6.32;;;;;;;;;;5301597;27;20040;-81
2022/06/15 04:41:21;;;;;;;9.65;6.32;;;;;;;;;;5323079;27;20365;-80
2022/06/15 04:43:52;;;;;;;10.80;6.80;;;;;;;;;;5300285;27;20035;-81
2022/06/15 04:46:24;;;;;;;9.23;6.00;;;;;;;;;;5326863;27;20285;-81
2022/06/15 04:48:55;;;;;;;8.65;5.68;;;;;;;;;;5320585;27;20744;-81
2022/06/15 04:51:27;;;;;;;9.70;5.90;;;;;;;;;;5325086;27;20441;-81
2022/06/15 04:53:59;;;;;;;11.75;6.05;;;;;;;;;;5313333;27;20419;-81
2022/06/15 04:56:30;;;;;;;9.13;6.10;;;;;;;;;;5317041;27;20029;-81
2022/06/15 04:59:02;;;;;;;10.85;6.15;;;;;;;;;;5303616;27;20036;-81
2022/06/15 05:01:34;;;;;;;10.55;6.90;;;;;;;;;;5317294;27;20028;-81
2022/06/15 05:04:05;;;;;;;10.75;6.32;;;;;;;;;;5297104;27;20023;-81
2022/06/15 05:06:38;;;;;;;9.00;5.70;;;;;;;;;;5318595;27;20435;-81
2022/06/15 05:09:11;;;;;;;8.25;5.80;;;;;;;;;;5318618;27;20050;-82
2022/06/15 05:11:42;;;;;;;11.93;6.07;;;;;;;;;;5303451;27;20036;-81
2022/06/15 05:14:14;;;;;;;11.98;6.35;;;;;;;;;;5327241;27;20035;-81
2022/06/15 05:16:45;;;;;;;11.75;5.88;;;;;;;;;;5295025;27;20025;-81
2022/06/15 05:19:16;;;;;;;11.32;6.03;;;;;;;;;;5315133;27;20107;-82
2022/06/15 05:21:48;;;;;;;7.67;5.10;;;;;;;;;;5315974;27;20107;-81
2022/06/15 05:24:19;;;;;;;9.30;5.93;;;;;;;;;;5306705;27;20263;-82
2022/06/15 05:26:50;;;;;;;10.67;4.93;;;;;;;;;;5314577;27;20313;-81
2022/06/15 05:29:22;;;;;;;7.40;4.97;;;;;;;;;;5297201;27;20290;-81
2022/06/15 05:31:53;;;;;;;8.55;4.55;;;;;;;;;;5309372;27;20755;-81
2022/06/15 05:34:25;;;;;;;10.07;5.35;;;;;;;;;;5326526;27;20063;-81
2022/06/15 05:36:56;;;;;;;8.43;5.05;;;;;;;;;;5313438;27;20514;-82
2022/06/15 05:39:27;;;;;;;12.02;5.40;;;;;;;;;;5294170;27;20035;-82
2022/06/15 05:41:59;;;;;;;7.32;5.20;;;;;;;;;;5295434;27;20036;-82
2022/06/15 05:47:11;;;;;;;10.63;4.85;;;;;;;;;;5312453;27;20052;-82
2022/06/15 05:49:42;;;;;;;9.60;5.63;;;;;;;;;;5300784;28;20105;-82
2022/06/15 05:52:13;;;;;;;9.40;5.25;;;;;;;;;;5308578;28;20052;-82
2022/06/15 05:54:44;;;;;;;9.45;4.90;;;;;;;;;;5317599;27;20514;-82
2022/06/15 05:57:20;;;;;;;8.57;5.13;;;;;;;;;;5334922;27;20120;-82
2022/06/15 05:59:52;;;;;;;10.45;5.78;;;;;;;;;;5303129;27;20019;-82
2022/06/15 06:02:24;;;;;;;8.45;5.28;;;;;;;;;;5314541;27;20023;-82
2022/06/15 06:04:55;;;;;;;12.00;4.95;;;;;;;;;;5307989;27;20043;-81
2022/06/15 06:07:27;;;;;;;9.68;4.85;;;;;;;;;;5310907;27;20032;-81
2022/06/15 06:09:58;;;;;;;9.70;5.53;;;;;;;;;;5315819;27;20074;-82
2022/06/15 06:12:29;;;;;;;7.53;4.50;;;;;;;;;;5316207;27;20784;-82
2022/06/15 06:15:00;;;;;;;9.10;4.67;;;;;;;;;;5310873;27;20273;-80
2022/06/15 06:17:31;;;;;;;9.73;5.13;;;;;;;;;;5312860;27;20727;-81
2022/06/15 06:20:03;;;;;;;8.05;4.32;;;;;;;;;;5322502;27;20169;-81
2022/06/15 06:22:34;;;;;;;11.13;4.78;;;;;;;;;;5294287;27;20470;-81
2022/06/15 06:25:06;;;;;;;10.82;4.72;;;;;;;;;;5295082;27;20396;-81
2022/06/15 06:27:37;;;;;;;12.90;4.75;;;;;;;;;;5290396;27;20459;-81
2022/06/15 06:30:09;;;;;;;9.48;5.05;;;;;;;;;;5306383;27;20030;-81
2022/06/15 06:32:40;;;;;;;11.38;4.68;;;;;;;;;;5311737;27;20123;-81
2022/06/15 06:35:12;;;;;;;8.20;4.57;;;;;;;;;;5288317;28;20124;-81
2022/06/15 06:37:44;;;;;;;9.55;4.55;;;;;;;;;;5311655;27;20054;-81
2022/06/15 06:40:15;;;;;;;11.02;4.80;;;;;;;;;;5312585;27;20037;-81
2022/06/15 06:42:47;;;;;;;6.97;4.25;;;;;;;;;;5302248;28;20120;-81
2022/06/15 06:45:18;;;;;;;9.17;4.60;;;;;;;;;;5329524;27;20096;-81
2022/06/15 06:47:49;;;;;;;9.27;3.63;;;;;;;;;;5326045;27;20051;-81
2022/06/15 06:50:22;;;;;;;8.90;3.97;;;;;;;;;;5319170;27;20260;-82
2022/06/15 06:52:53;;;;;;;6.22;3.70;;;;;;;;;;5328713;27;20077;-81
2022/06/15 06:55:28;;;;;;;9.63;4.57;;;;;;;;;;5321281;27;20037;-81
2022/06/15 06:58:00;;;;;;;8.00;4.13;;;;;;;;;;5287304;28;20047;-81
2022/06/15 07:00:32;;;;;;;9.23;3.80;;;;;;;;;;5305913;28;20016;-82
2022/06/15 07:03:05;;;;;;;7.93;4.32;;;;;;;;;;5326480;28;20035;-82
2022/06/15 07:05:36;;;;;;;6.40;3.63;;;;;;;;;;5294861;28;20017;-80
2022/06/15 07:08:10;;;;;;;6.55;4.00;;;;;;;;;;5322309;27;20099;-81
2022/06/15 07:10:42;;;;;;;9.07;3.95;;;;;;;;;;5307629;28;20085;-81
2022/06/15 07:13:13;;;;;;;7.75;3.85;;;;;;;;;;5308826;28;20526;-81
2022/06/15 07:15:44;;;;;;;5.60;4.10;;;;;;;;;;5326460;28;20044;-82
2022/06/15 07:18:16;;;;;;;7.38;3.70;;;;;;;;;;5326282;28;20482;-81
2022/06/15 07:20:47;;;;;;;7.18;3.97;;;;;;;;;;5324309;27;20028;-81
2022/06/15 07:23:18;;;;;;;8.10;3.97;;;;;;;;;;5327021;28;20365;-80
2022/06/15 07:25:49;;;;;;;8.27;3.70;;;;;;;;;;5308652;28;20059;-81
2022/06/15 07:28:20;;;;;;;5.97;4.07;;;;;;;;;;5307612;28;20016;-81
2022/06/15 07:30:52;;;;;;;9.43;4.60;;;;;;;;;;5326435;28;20361;-81
2022/06/15 07:33:23;;;;;;;5.30;3.40;;;;;;;;;;5326498;28;20043;-81
2022/06/15 07:35:54;;;;;;;6.75;3.35;;;;;;;;;;5306534;28;20357;-81
2022/06/15 07:38:26;;;;;;;14.90;3.90;;;;;;;;;;5306648;28;20024;-81
2022/06/15 07:40:58;;;;;;;8.20;3.58;;;;;;;;;;5307008;28;20068;-82
2022/06/15 07:43:30;;;;;;;9.27;4.05;;;;;;;;;;5325456;27;20504;-82
2022/06/15 07:46:01;;;;;;;9.60;3.95;;;;;;;;;;5307529;28;20035;-82
2022/06/15 07:51:29;;;;;;;9.65;3.72;;;;;;;;;;5324781;27;20286;-82
2022/06/15 07:54:01;;;;;;;9.32;4.10;;;;;;;;;;5326421;27;20036;-82
2022/06/15 07:56:32;;;;;;;9.65;3.58;;;;;;;;;;5304603;28;20035;-82
2022/06/15 07:59:04;;;;;;;6.65;3.85;;;;;;;;;;5305867;28;20025;-82
2022/06/15 08:01:36;;;;;;;9.10;3.30;;;;;;;;;;5286067;28;20086;-82
2022/06/15 08:04:08;;;;;;;4.45;2.55;;;;;;;;;;5305747;28;20047;-82
2022/06/15 08:06:41;;;;;;;5.57;3.38;;;;;;;;;;5304623;28;20091;-82
2022/06/15 08:09:13;;;;;;;6.20;3.03;;;;;;;;;;5306210;28;20020;-82
2022/06/15 08:12:30;;;;;;;5.50;3.03;;;;;;;;;;5305235;27;20063;-82
2022/06/15 08:14:40;;;;;;;8.10;3.70;;;;;;;;;;5293594;28;20032;-82
2022/06/15 08:17:15;;;;;;;8.60;3.40;;;;;;;;;;5285432;28;20471;-82
2022/06/15 08:19:48;;;;;;;8.98;3.15;;;;;;;;;;5304685;28;20185;-82
2022/06/15 08:22:23;;;;;;;8.82;2.50;;;;;;;;;;5285787;28;20025;-81
2022/06/15 08:24:54;;;;;;;6.00;2.30;;;;;;;;;;5288573;28;20133;-82
2022/06/15 08:27:25;;;;;;;6.05;2.60;;;;;;;;;;5299138;28;20564;-82
2022/06/15 08:29:57;;;;;;;5.82;2.78;;;;;;;;;;5325556;27;20033;-82
2022/06/15 08:32:28;;;;;;;6.75;2.38;;;;;;;;;;5339918;27;20036;-81
2022/06/15 08:34:59;;;;;;;5.15;2.33;;;;;;;;;;5341784;27;20116;-81
2022/06/15 08:37:31;;;;;;;6.90;2.80;;;;;;;;;;5320261;27;20475;-81
2022/06/15 08:40:03;;;;;;;7.53;2.60;;;;;;;;;;5329619;27;20313;-82
2022/06/15 08:42:40;;;;;;;7.07;3.10;;;;;;;;;;5307540;28;20027;-81
2022/06/15 08:45:30;;;;;;;9.43;2.80;;;;;;;;;;5318439;27;20069;-82
2022/06/15 08:48:01;;;;;;;8.43;2.78;;;;;;;;;;5341650;27;20034;-82
2022/06/15 08:50:39;;;;;;;10.23;3.25;;;;;;;;;;5303157;28;20393;-82
2022/06/15 08:53:14;;;;;;;8.07;2.40;;;;;;;;;;5288418;28;20044;-83
2022/06/15 08:55:45;;;;;;;;;;;;;;;;;;5325271;28;20020;-82
2022/06/15 08:58:23;;;;;;;4.13;2.30;;;;;;;;;;5325588;28;19923;-80
2022/06/15 09:00:57;;;;;;;6.20;2.45;;;;;;;;;;5340183;27;20024;-80
2022/06/15 09:03:36;;;;;;;6.97;2.50;;;;;;;;;;5310051;28;20040;-81
2022/06/15 09:06:13;;;;;;;5.65;2.50;;;;;;;;;;5324613;28;20024;-81
2022/06/15 09:09:03;;;;;;;13.93;2.88;;;;;;;;;;5324535;28;20416;-81
2022/06/15 09:12:49;;;;;;;5.22;2.58;;;;;;;;;;5340423;27;20043;-81
2022/06/15 09:15:04;;;;;;;5.82;2.30;;;;;;;;;;5317958;27;20041;-82
2022/06/15 09:17:35;;;;;;;;;;;;;;;;;;5315585;28;20032;-82
2022/06/15 09:20:16;;;;;;;7.72;2.50;;;;;;;;;;5316332;27;19920;-81
2022/06/15 09:22:55;;;;;;;5.55;2.67;;;;;;;;;;5314664;27;20048;-81
2022/06/15 09:25:30;;;;;;;9.68;2.75;;;;;;;;;;5319239;27;20028;-82
2022/06/15 09:28:05;;;;;;;4.57;2.20;;;;;;;;;;5318304;27;20116;-82
2022/06/15 09:30:39;;;;;;;6.53;2.15;;;;;;;;;;5293979;27;20436;-82
2022/06/15 09:33:16;;;;;;;6.28;2.30;;;;;;;;;;5296012;27;20059;-81
2022/06/15 09:35:52;;;;;;;6.88;2.50;;;;;;;;;;5294418;27;20055;-81
2022/06/15 09:38:23;;;;;;;6.60;3.03;;;;;;;;;;5312696;27;20036;-82
2022/06/15 09:40:58;;;;;;;7.80;2.33;;;;;;;;;;5310574;27;20025;-83
2022/06/15 09:43:29;;;;;;;;;;;;;;;;;;5299596;27;20111;-83
2022/06/15 09:46:06;;;;;;;7.50;2.92;;;;;;;;;;5317843;27;20079;-82
2022/06/15 09:48:45;;;;;;;7.88;2.38;;;;;;;;;;5309759;27;20504;-82
2022/06/15 09:51:26;;;;;;;8.20;2.70;;;;;;;;;;5289640;27;20123;-83
2022/06/15 09:54:00;;;;;;;5.47;2.33;;;;;;;;;;5295227;27;20024;-83
2022/06/15 09:56:31;;;;;;;6.75;2.33;;;;;;;;;;5311432;27;20032;-83
2022/06/15 09:59:08;;;;;;;5.97;2.30;;;;;;;;;;5292013;27;20032;-83
2022/06/15 10:01:41;;;;;;;6.22;2.38;;;;;;;;;;5295822;27;20024;-82
2022/06/15 10:04:21;;;;;;;6.88;2.17;;;;;;;;;;5290242;27;20035;-82
2022/06/15 10:06:55;;;;;;;5.15;2.10;;;;;;;;;;5316237;27;20357;-82
2022/06/15 10:09:28;;;;;;;7.82;2.78;;;;;;;;;;5294743;27;20021;-82
2022/06/15 10:15:11;;;;;;;6.78;2.25;;;;;;;;;;5312697;27;20464;-82
2022/06/15 10:17:48;;;;;;;8.38;2.63;;;;;;;;;;5311018;27;20119;-82
2022/06/15 10:20:36;;;;;;;6.32;2.60;;;;;;;;;;5313724;27;20043;-82
2022/06/15 10:23:22;;;;;;;5.72;2.13;;;;;;;;;;5304149;27;20031;-82
2022/06/15 10:25:55;;;;;;;6.32;2.40;;;;;;;;;;5327233;27;20411;-82
2022/06/15 10:28:30;;;;;;;8.30;2.28;;;;;;;;;;5335619;27;20360;-81
2022/06/15 10:31:08;;;;;;;6.60;2.20;;;;;;;;;;5314957;27;20032;-82
2022/06/15 10:33:48;;;;;;;5.50;2.05;;;;;;;;;;5326999;28;20028;-83
2022/06/15 10:36:21;;;;;;;7.03;2.25;;;;;;;;;;5327147;28;20036;-82
2022/06/15 10:39:04;;;;;;;6.65;3.00;;;;;;;;;;5327712;27;20028;-83
2022/06/15 10:41:46;;;;;;;8.25;2.63;;;;;;;;;;5327678;28;20166;-83
2022/06/15 10:44:37;;;;;;;6.57;2.30;;;;;;;;;;5307204;27;20036;-82
2022/06/15 10:47:18;;;;;;;7.25;2.65;;;;;;;;;;5286564;28;20449;-83
2022/06/15 10:49:51;;;;;;;7.38;2.17;;;;;;;;;;5306436;28;20070;-83
2022/06/15 10:52:23;;;;;;;5.85;2.50;;;;;;;;;;5305698;27;20024;-83
2022/06/15 11:04:24;;;;;;;6.18;2.55;;;;;;;;;;5306092;28;20175;-83
2022/06/15 11:07:13;;;;;;;7.35;2.42;;;;;;;;;;5301375;28;20033;-82
2022/06/15 11:09:53;;;;;;;8.18;2.17;;;;;;;;;;5311527;27;20443;-83
2022/06/15 11:12:43;;;;;;;6.03;2.25;;;;;;;;;;5309071;27;20032;-83
2022/06/15 11:15:14;;;;;;;5.60;2.10;;;;;;;;;;5339532;27;20063;-82
2022/06/15 11:18:03;;;;;;;8.02;2.17;;;;;;;;;;5332607;27;20038;-83
2022/06/15 11:20:53;;;;;;;6.10;2.40;;;;;;;;;;5326307;27;20031;-83
2022/06/15 11:23:30;;;;;;;6.38;2.03;;;;;;;;;;5333225;27;20170;-83
2022/06/15 11:26:51;;;;;;;5.68;2.08;;;;;;;;;;5312641;27;20032;-83
2022/06/15 11:28:59;;;;;;;4.57;1.75;;;;;;;;;;5311330;27;20050;-82
2022/06/15 11:31:31;;;;;;;7.43;2.08;;;;;;;;;;5314780;27;20107;-82
2022/06/15 11:34:06;;;;;;;4.30;1.83;;;;;;;;;;5310441;27;20045;-83
2022/06/15 11:36:56;;;;;;;6.15;2.35;;;;;;;;;;5324863;27;20032;-82
2022/06/15 11:39:32;;;;;;;6.78;1.63;;;;;;;;;;5317323;27;20082;-83
2022/06/15 11:42:07;;;;;;;5.20;2.40;;;;;;;;;;5327774;27;20097;-82
2022/06/15 11:44:40;;;;;;;4.68;2.20;;;;;;;;;;5305179;27;20028;-83
2022/06/15 11:47:12;;;;;;;5.80;2.30;;;;;;;;;;5289091;28;20587;-82
2022/06/15 11:49:43;;;;;;;4.50;1.92;;;;;;;;;;5323239;27;20111;-82
2022/06/15 11:52:14;;;;;;;6.40;1.93;;;;;;;;;;5311475;27;20040;-82
2022/06/15 11:54:55;;;;;;;9.30;2.15;;;;;;;;;;5313866;27;20031;-82
2022/06/15 11:57:46;;;;;;;4.28;1.83;;;;;;;;;;5313194;27;20110;-82
2022/06/15 12:00:37;;;;;;;5.80;2.47;;;;;;;;;;5310523;27;20059;-83
2022/06/15 12:03:12;;;;;;;7.88;2.20;;;;;;;;;;5310275;27;20040;-82
2022/06/15 12:05:50;;;;;;;5.55;2.00;;;;;;;;;;5306357;27;20032;-82
2022/06/15 12:08:40;;;;;;;6.55;2.00;;;;;;;;;;5288216;27;20028;-82
2022/06/15 12:14:07;;;;;;;6.25;2.10;;;;;;;;;;5326153;27;20100;-82
2022/06/15 12:16:59;;;;;;;6.03;2.22;;;;;;;;;;5319279;27;20093;-82
2022/06/15 12:19:56;;;;;;;7.60;2.40;;;;;;;;;;5313253;27;20140;-82
2022/06/15 12:22:31;;;;;;;5.63;1.90;;;;;;;;;;5302035;28;20497;-82
2022/06/15 12:25:14;;;;;;;6.63;1.95;;;;;;;;;;5317619;27;20016;-82
2022/06/15 12:27:51;;;;;;;8.32;2.33;;;;;;;;;;5321192;27;20031;-83
2022/06/15 12:30:29;;;;;;;5.47;1.85;;;;;;;;;;5285413;28;20480;-83
2022/06/15 12:33:06;;;;;;;5.57;1.90;;;;;;;;;;5302380;27;20048;-83
2022/06/15 12:35:41;;;;;;;5.30;2.13;;;;;;;;;;5310825;27;20464;-83
2022/06/15 12:38:20;;;;;;;5.90;1.67;;;;;;;;;;5321895;27;20070;-83
2022/06/15 12:40:53;;;;;;;5.47;2.22;;;;;;;;;;5323589;27;20464;-83
2022/06/15 12:43:33;;;;;;;4.80;1.80;;;;;;;;;;5320250;27;20017;-83
2022/06/15 12:46:13;;;;;;;6.00;1.75;;;;;;;;;;5303485;27;20032;-83
2022/06/15 12:49:10;;;;;;;7.25;1.98;;;;;;;;;;5285832;27;20085;-83
2022/06/15 12:51:59;;;;;;;5.70;1.80;;;;;;;;;;5315238;27;20032;-82
2022/06/15 12:54:58;;;;;;;5.32;2.30;;;;;;;;;;5323024;27;20046;-82
2022/06/15 12:57:44;;;;;;;7.72;2.20;;;;;;;;;;5325682;27;20115;-83
2022/06/15 13:00:24;;;;;;;8.25;2.35;;;;;;;;;;5305425;27;20024;-82
2022/06/15 13:02:59;;;;;;;7.95;2.17;;;;;;;;;;5309933;27;20510;-82
2022/06/15 13:05:32;;;;;;;5.45;1.67;;;;;;;;;;5312783;27;20075;-82
2022/06/15 13:08:25;;;;;;;3.47;1.73;;;;;;;;;;5312334;27;20028;-82
2022/06/15 13:10:59;;;;;;;5.30;1.92;;;;;;;;;;5309325;27;20090;-82
2022/06/15 13:13:31;;;;;;;6.57;2.20;;;;;;;;;;5313352;27;20379;-82
2022/06/15 13:16:14;;;;;;;7.72;2.08;;;;;;;;;;5291624;27;20415;-81
2022/06/15 13:18:53;;;;;;;6.20;2.03;;;;;;;;;;5309641;27;20025;-82
2022/06/15 13:21:25;;;;;;;8.35;2.38;;;;;;;;;;5293643;27;20023;-82
2022/06/15 13:24:05;;;;;;;10.90;1.80;;;;;;;;;;5314073;27;20071;-82
2022/06/15 13:26:39;;;;;;;8.57;2.28;;;;;;;;;;5324187;27;20086;-81
2022/06/15 13:29:10;;;;;;;7.63;2.00;;;;;;;;;;5323506;27;20047;-82
2022/06/15 13:31:41;;;;;;;10.40;2.20;;;;;;;;;;5308478;27;20476;-82
2022/06/15 13:34:14;;;;;;;7.27;2.00;;;;;;;;;;5310022;27;20695;-82
2022/06/15 13:37:05;;;;;;;8.00;2.47;;;;;;;;;;5308886;27;20400;-82
2022/06/15 13:39:47;;;;;;;5.20;1.77;;;;;;;;;;5292047;27;20111;-82
2022/06/15 13:42:24;;;;;;;6.15;2.40;;;;;;;;;;5287437;27;20059;-83
2022/06/15 13:45:07;;;;;;;8.52;1.90;;;;;;;;;;5309591;27;20488;-82
2022/06/15 13:47:48;;;;;;;5.60;1.70;;;;;;;;;;5308417;27;20039;-82
2022/06/15 13:50:23;;;;;;;5.55;1.92;;;;;;;;;;5298757;27;20457;-82
2022/06/15 13:52:56;;;;;;;5.65;2.00;;;;;;;;;;5307422;27;20484;-83
2022/06/15 13:55:35;;;;;;;14.38;3.00;;;;;;;;;;5309745;27;20479;-82
2022/06/15 13:58:16;;;;;;;6.82;2.05;;;;;;;;;;5310174;27;20495;-82
2022/06/15 14:01:02;;;;;;;6.80;1.95;;;;;;;;;;5310945;27;20357;-81
2022/06/15 14:03:52;;;;;;;7.78;1.90;;;;;;;;;;5309359;27;20038;-82
2022/06/15 14:06:26;;;;;;;7.10;2.10;;;;;;;;;;5309897;27;20737;-81
2022/06/15 14:09:12;;;;;;;4.75;2.10;;;;;;;;;;5299219;27;20044;-82
2022/06/15 14:12:08;;;;;;;5.88;1.65;;;;;;;;;;5292922;27;20074;-82
2022/06/15 14:14:39;;;;;;;5.82;1.88;;;;;;;;;;5307431;27;20025;-82
2022/06/15 14:17:29;;;;;;;5.15;1.88;;;;;;;;;;5308369;27;20097;-82
2022/06/15 14:20:00;;;;;;;5.90;1.70;;;;;;;;;;5304245;27;20063;-83
2022/06/15 14:22:44;;;;;;;5.80;1.77;;;;;;;;;;5319662;27;20127;-82
2022/06/15 14:25:17;;;;;;;6.43;1.90;;;;;;;;;;5292658;27;20063;-82
2022/06/15 14:27:54;;;;;;;4.70;1.63;;;;;;;;;;5310981;27;20020;-83
2022/06/15 14:30:31;;;;;;;5.18;2.03;;;;;;;;;;5308991;27;20090;-82
2022/06/15 14:33:07;;;;;;;8.00;2.08;;;;;;;;;;5292559;27;20044;-82
2022/06/15 14:35:38;;;;;;;4.45;1.98;;;;;;;;;;5320343;27;20389;-82
2022/06/15 14:38:20;;;;;;;5.13;1.70;;;;;;;;;;5316521;27;20090;-82
2022/06/15 14:40:52;;;;;;;6.30;2.20;;;;;;;;;;5320160;27;20040;-82
2022/06/15 14:43:33;;;;;;;9.30;2.07;;;;;;;;;;5310392;27;20031;-82
2022/06/15 14:46:05;;;;;;;10.05;2.00;;;;;;;;;;5300294;28;20063;-82
2022/06/15 14:48:37;;;;;;;6.20;2.00;;;;;;;;;;5297147;27;20030;-82
2022/06/15 14:51:17;;;;;;;6.93;1.85;;;;;;;;;;5306588;27;20029;-82
2022/06/15 14:53:52;;;;;;;6.28;2.17;;;;;;;;;;5309137;27;20033;-81
2022/06/15 14:56:24;;;;;;;6.10;1.80;;;;;;;;;;5321938;27;20024;-81
2022/06/15 14:59:04;;;;;;;8.75;2.10;;;;;;;;;;5291333;27;20070;-82
2022/06/15 15:01:51;;;;;;;5.93;1.90;;;;;;;;;;5290806;27;20040;-81
2022/06/15 15:04:23;;;;;;;4.82;1.67;;;;;;;;;;5301167;27;20037;-81
2022/06/15 15:06:57;;;;;;;6.07;1.98;;;;;;;;;;5306987;27;20038;-82
2022/06/15 15:09:28;;;;;;;5.60;1.88;;;;;;;;;;5307091;27;20024;-82
2022/06/15 15:12:07;;;;;;;5.28;2.03;;;;;;;;;;5307045;27;20047;-83
2022/06/15 15:14:48;;;;;;;6.38;1.88;;;;;;;;;;5288115;27;20575;-81
2022/06/15 15:17:19;;;;;;;3.97;1.50;;;;;;;;;;5293017;27;20108;-81
2022/06/15 15:19:50;;;;;;;3.72;1.90;;;;;;;;;;5310763;27;20024;-82
2022/06/15 15:22:23;;;;;;;8.10;2.23;;;;;;;;;;5306195;27;20107;-82
2022/06/15 15:24:54;;;;;;;4.75;1.73;;;;;;;;;;5311420;27;20028;-82
2022/06/15 15:37:34;;;;;;;4.20;1.60;;;;;;;;;;5307675;27;20060;-82
2022/06/15 15:39:11;;;;;;;6.85;2.22;;;;;;;;;;5312584;27;20044;-81
2022/06/15 15:41:42;;;;;;;3.55;1.90;;;;;;;;;;5308501;27;20062;-82
2022/06/15 15:44:16;;;;;;;7.28;2.08;;;;;;;;;;5308337;28;20059;-82
2022/06/15 15:46:48;;;;;;;4.47;1.83;;;;;;;;;;5293300;27;20025;-82
2022/06/15 15:49:19;;;;;;;3.63;1.83;;;;;;;;;;5326266;27;20051;-82
2022/06/15 15:51:51;;;;;;;6.43;1.90;;;;;;;;;;5312869;27;20039;-82
2022/06/15 15:54:22;;;;;;;4.18;2.20;;;;;;;;;;5309790;27;20024;-82
2022/06/15 15:56:53;;;;;;;5.37;2.00;;;;;;;;;;5295259;28;20028;-83
2022/06/15 15:59:26;;;;;;;4.25;1.80;;;;;;;;;;5294794;28;20017;-82
2022/06/15 16:01:58;;;;;;;7.90;2.38;;;;;;;;;;5316699;28;20424;-83